sensor_id;sensor_type;location;lat;lon;timestamp;pressure;altitude;pressure_sealevel;temperature;humidity
46954;BME280;32707;43.886;12.874;2022-08-23T00:00:57;100846.66;;;22.93;55.96
46954;BME280;32707;43.886;12.874;2022-08-23T00:03:23;100849.09;;;22.90;56.13
46954;BME280;32707;43.886;12.874;2022-08-23T00:05:48;100852.78;;;22.91;56.13
46954;BME280;32707;43.886;12.874;2022-08-23T00:08:14;100845.44;;;22.90;56.26
46954;BME280;32707;43.886;12.874;2022-08-23T00:10:39;100844.19;;;22.87;56.10
46954;BME280;32707;43.886;12.874;2022-08-23T00:13:05;100842.59;;;22.86;56.25
46954;BME280;32707;43.886;12.874;2022-08-23T00:15:30;100835.25;;;22.85;56.22
46954;BME280;32707;43.886;12.874;2022-08-23T00:17:55;100844.59;;;22.82;56.38
46954;BME280;32707;43.886;12.874;2022-08-23T00:20:21;100842.56;;;22.83;56.47
46954;BME280;32707;43.886;12.874;2022-08-23T00:22:46;100839.72;;;22.83;56.44
46954;BME280;32707;43.886;12.874;2022-08-23T00:25:13;100836.88;;;22.83;56.59
46954;BME280;32707;43.886;12.874;2022-08-23T00:27:39;100834.81;;;22.80;56.48
46954;BME280;32707;43.886;12.874;2022-08-23T00:30:07;100841.31;;;22.77;56.58
46954;BME280;32707;43.886;12.874;2022-08-23T00:32:35;100838.91;;;22.75;56.80
46954;BME280;32707;43.886;12.874;2022-08-23T00:35:03;100851.09;;;22.68;56.82
46954;BME280;32707;43.886;12.874;2022-08-23T00:37:30;100841.69;;;22.57;57.20
46954;BME280;32707;43.886;12.874;2022-08-23T00:39:57;100847.34;;;22.43;57.52
46954;BME280;32707;43.886;12.874;2022-08-23T00:42:40;100840.31;;;22.22;58.06
46954;BME280;32707;43.886;12.874;2022-08-23T00:45:37;100839.41;;;22.00;58.59
46954;BME280;32707;43.886;12.874;2022-08-23T00:48:22;100845.81;;;21.83;58.94
46954;BME280;32707;43.886;12.874;2022-08-23T00:51:10;100840.88;;;21.72;59.06
46954;BME280;32707;43.886;12.874;2022-08-23T00:53:43;100839.59;;;21.63;59.25
46954;BME280;32707;43.886;12.874;2022-08-23T00:56:12;100844.84;;;21.57;59.49
46954;BME280;32707;43.886;12.874;2022-08-23T00:58:40;100839.09;;;21.50;59.59
46954;BME280;32707;43.886;12.874;2022-08-23T01:01:06;100846.75;;;21.42;59.84
46954;BME280;32707;43.886;12.874;2022-08-23T01:03:34;100833.66;;;21.34;60.17
46954;BME280;32707;43.886;12.874;2022-08-23T01:06:27;100833.63;;;21.27;60.34
46954;BME280;32707;43.886;12.874;2022-08-23T01:08:58;100836.81;;;21.22;60.39
46954;BME280;32707;43.886;12.874;2022-08-23T01:11:29;100847.38;;;21.21;60.53
46954;BME280;32707;43.886;12.874;2022-08-23T01:14:03;100850.19;;;21.17;60.55
46954;BME280;32707;43.886;12.874;2022-08-23T01:16:53;100855.81;;;21.10;60.53
46954;BME280;32707;43.886;12.874;2022-08-23T01:19:28;100851.25;;;20.99;60.72
46954;BME280;32707;43.886;12.874;2022-08-23T01:22:15;100849.03;;;20.81;61.18
46954;BME280;32707;43.886;12.874;2022-08-23T01:24:43;100840.41;;;20.74;60.96
46954;BME280;32707;43.886;12.874;2022-08-23T01:27:11;100849.31;;;20.69;61.57
46954;BME280;32707;43.886;12.874;2022-08-23T01:29:38;100852.88;;;20.62;61.34
46954;BME280;32707;43.886;12.874;2022-08-23T01:32:06;100848.72;;;20.56;61.73
46954;BME280;32707;43.886;12.874;2022-08-23T01:34:32;100843.41;;;20.51;61.66
46954;BME280;32707;43.886;12.874;2022-08-23T01:36:58;100849.47;;;20.49;61.87
46954;BME280;32707;43.886;12.874;2022-08-23T01:39:24;100840.59;;;20.54;61.51
46954;BME280;32707;43.886;12.874;2022-08-23T01:41:49;100843.16;;;20.63;61.47
46954;BME280;32707;43.886;12.874;2022-08-23T01:44:15;100834.31;;;20.72;61.17
46954;BME280;32707;43.886;12.874;2022-08-23T01:46:45;100838.88;;;20.80;61.31
46954;BME280;32707;43.886;12.874;2022-08-23T01:49:11;100840.53;;;20.85;60.88
46954;BME280;32707;43.886;12.874;2022-08-23T01:51:37;100844.63;;;20.87;61.15
46954;BME280;32707;43.886;12.874;2022-08-23T01:54:03;100841.81;;;20.91;61.06
46954;BME280;32707;43.886;12.874;2022-08-23T01:56:30;100837.75;;;20.92;61.03
46954;BME280;32707;43.886;12.874;2022-08-23T01:58:57;100845.44;;;20.88;61.07
46954;BME280;32707;43.886;12.874;2022-08-23T02:01:22;100844.22;;;20.89;61.28
46954;BME280;32707;43.886;12.874;2022-08-23T02:03:48;100849.13;;;20.92;61.51
46954;BME280;32707;43.886;12.874;2022-08-23T02:06:14;100837.81;;;20.95;61.42
46954;BME280;32707;43.886;12.874;2022-08-23T02:08:39;100843.13;;;21.01;61.53
46954;BME280;32707;43.886;12.874;2022-08-23T02:11:25;100837.44;;;21.01;61.61
46954;BME280;32707;43.886;12.874;2022-08-23T02:13:53;100843.94;;;21.01;61.68
46954;BME280;32707;43.886;12.874;2022-08-23T02:16:28;100848.03;;;21.04;61.72
46954;BME280;32707;43.886;12.874;2022-08-23T02:18:55;100850.88;;;21.04;61.55
46954;BME280;32707;43.886;12.874;2022-08-23T02:21:21;100853.72;;;21.04;61.73
46954;BME280;32707;43.886;12.874;2022-08-23T02:23:47;100855.75;;;21.03;61.70
46954;BME280;32707;43.886;12.874;2022-08-23T02:26:13;100854.88;;;20.95;61.77
46954;BME280;32707;43.886;12.874;2022-08-23T02:28:39;100860.47;;;20.88;61.89
46954;BME280;32707;43.886;12.874;2022-08-23T02:31:05;100857.13;;;20.79;62.08
46954;BME280;32707;43.886;12.874;2022-08-23T02:33:31;100871.69;;;20.74;62.40
46954;BME280;32707;43.886;12.874;2022-08-23T02:35:56;100867.56;;;20.68;62.13
46954;BME280;32707;43.886;12.874;2022-08-23T02:38:22;100865.75;;;20.52;62.56
46954;BME280;32707;43.886;12.874;2022-08-23T02:40:48;100868.50;;;20.45;62.84
46954;BME280;32707;43.886;12.874;2022-08-23T02:43:13;100862.78;;;20.42;62.63
46954;BME280;32707;43.886;12.874;2022-08-23T02:45:40;100863.19;;;20.44;62.48
46954;BME280;32707;43.886;12.874;2022-08-23T02:50:32;100869.41;;;20.53;62.33
46954;BME280;32707;43.886;12.874;2022-08-23T02:52:58;100873.94;;;20.57;62.35
46954;BME280;32707;43.886;12.874;2022-08-23T02:55:24;100867.47;;;20.61;62.30
46954;BME280;32707;43.886;12.874;2022-08-23T02:57:52;100861.78;;;20.61;62.25
46954;BME280;32707;43.886;12.874;2022-08-23T03:00:19;100868.69;;;20.59;62.14
46954;BME280;32707;43.886;12.874;2022-08-23T03:02:46;100871.91;;;20.58;62.44
46954;BME280;32707;43.886;12.874;2022-08-23T03:05:12;100868.63;;;20.56;62.29
46954;BME280;32707;43.886;12.874;2022-08-23T03:07:39;100871.06;;;20.54;62.43
46954;BME280;32707;43.886;12.874;2022-08-23T03:10:05;100870.19;;;20.50;62.99
46954;BME280;32707;43.886;12.874;2022-08-23T03:12:31;100879.44;;;20.43;62.73
46954;BME280;32707;43.886;12.874;2022-08-23T03:14:58;100876.13;;;20.37;62.67
46954;BME280;32707;43.886;12.874;2022-08-23T03:17:23;100874.44;;;20.33;62.97
46954;BME280;32707;43.886;12.874;2022-08-23T03:19:49;100881.72;;;20.30;63.04
46954;BME280;32707;43.886;12.874;2022-08-23T03:22:16;100882.50;;;20.27;63.12
46954;BME280;32707;43.886;12.874;2022-08-23T03:24:42;100879.56;;;20.20;62.99
46954;BME280;32707;43.886;12.874;2022-08-23T03:27:08;100879.84;;;20.11;63.03
46954;BME280;32707;43.886;12.874;2022-08-23T03:29:34;100887.06;;;20.05;63.53
46954;BME280;32707;43.886;12.874;2022-08-23T03:32:00;100889.84;;;20.02;63.31
46954;BME280;32707;43.886;12.874;2022-08-23T03:34:25;100884.16;;;20.02;63.36
46954;BME280;32707;43.886;12.874;2022-08-23T03:36:51;100882.13;;;20.02;63.32
46954;BME280;32707;43.886;12.874;2022-08-23T03:39:17;100876.91;;;20.04;63.39
46954;BME280;32707;43.886;12.874;2022-08-23T03:41:42;100881.75;;;20.04;63.30
46954;BME280;32707;43.886;12.874;2022-08-23T03:44:08;100884.56;;;20.00;63.40
46954;BME280;32707;43.886;12.874;2022-08-23T03:46:33;100895.44;;;19.94;63.72
46954;BME280;32707;43.886;12.874;2022-08-23T03:49:00;100895.44;;;19.94;63.44
46954;BME280;32707;43.886;12.874;2022-08-23T03:51:28;100897.06;;;19.95;63.69
46954;BME280;32707;43.886;12.874;2022-08-23T03:53:54;100901.91;;;19.95;63.61
46954;BME280;32707;43.886;12.874;2022-08-23T03:56:35;100902.31;;;19.93;63.45
46954;BME280;32707;43.886;12.874;2022-08-23T03:59:05;100897.84;;;19.92;63.34
46954;BME280;32707;43.886;12.874;2022-08-23T04:01:31;100905.16;;;19.93;63.64
46954;BME280;32707;43.886;12.874;2022-08-23T04:03:56;100911.66;;;19.94;63.36
46954;BME280;32707;43.886;12.874;2022-08-23T04:06:28;100911.66;;;19.94;63.44
46954;BME280;32707;43.886;12.874;2022-08-23T04:08:54;100909.63;;;19.94;63.44
46954;BME280;32707;43.886;12.874;2022-08-23T04:11:21;100914.00;;;19.88;63.72
46954;BME280;32707;43.886;12.874;2022-08-23T04:13:46;100915.19;;;19.87;63.90
46954;BME280;32707;43.886;12.874;2022-08-23T04:16:12;100915.56;;;19.86;63.58
46954;BME280;32707;43.886;12.874;2022-08-23T04:18:38;100920.81;;;19.84;63.69
46954;BME280;32707;43.886;12.874;2022-08-23T04:21:07;100916.41;;;19.86;63.63
46954;BME280;32707;43.886;12.874;2022-08-23T04:23:35;100920.38;;;19.81;63.62
46954;BME280;32707;43.886;12.874;2022-08-23T04:26:00;100920.25;;;19.74;63.94
46954;BME280;32707;43.886;12.874;2022-08-23T04:28:26;100918.25;;;19.75;63.99
46954;BME280;32707;43.886;12.874;2022-08-23T04:30:52;100917.88;;;19.76;63.82
46954;BME280;32707;43.886;12.874;2022-08-23T04:33:18;100921.22;;;19.82;63.73
46954;BME280;32707;43.886;12.874;2022-08-23T04:35:44;100937.91;;;19.87;63.59
46954;BME280;32707;43.886;12.874;2022-08-23T04:38:10;100933.94;;;19.92;63.96
46954;BME280;32707;43.886;12.874;2022-08-23T04:40:36;100943.69;;;19.94;63.81
46954;BME280;32707;43.886;12.874;2022-08-23T04:43:20;100942.94;;;19.97;63.59
46954;BME280;32707;43.886;12.874;2022-08-23T04:45:46;100943.38;;;19.99;63.75
46954;BME280;32707;43.886;12.874;2022-08-23T04:48:12;100937.25;;;19.97;63.89
46954;BME280;32707;43.886;12.874;2022-08-23T04:50:39;100938.88;;;19.98;63.88
46954;BME280;32707;43.886;12.874;2022-08-23T04:53:06;100946.16;;;19.96;63.97
46954;BME280;32707;43.886;12.874;2022-08-23T04:55:31;100940.38;;;19.89;63.75
46954;BME280;32707;43.886;12.874;2022-08-23T04:57:57;100944.00;;;19.89;64.11
46954;BME280;32707;43.886;12.874;2022-08-23T05:00:22;100948.56;;;19.94;64.01
46954;BME280;32707;43.886;12.874;2022-08-23T05:02:48;100945.00;;;20.00;63.94
46954;BME280;32707;43.886;12.874;2022-08-23T05:05:13;100940.25;;;20.08;64.14
46954;BME280;32707;43.886;12.874;2022-08-23T05:07:39;100942.69;;;20.10;63.85
46954;BME280;32707;43.886;12.874;2022-08-23T05:10:07;100952.88;;;20.11;64.05
46954;BME280;32707;43.886;12.874;2022-08-23T05:12:33;100956.16;;;20.13;63.87
46954;BME280;32707;43.886;12.874;2022-08-23T05:14:59;100966.66;;;20.09;63.97
46954;BME280;32707;43.886;12.874;2022-08-23T05:17:25;100962.16;;;20.08;64.05
46954;BME280;32707;43.886;12.874;2022-08-23T05:19:50;100963.38;;;20.07;64.13
46954;BME280;32707;43.886;12.874;2022-08-23T05:22:16;100972.31;;;20.09;64.45
46954;BME280;32707;43.886;12.874;2022-08-23T05:24:42;100966.66;;;20.09;64.02
46954;BME280;32707;43.886;12.874;2022-08-23T05:27:07;100970.72;;;20.11;64.22
46954;BME280;32707;43.886;12.874;2022-08-23T05:29:34;100972.44;;;20.16;64.19
46954;BME280;32707;43.886;12.874;2022-08-23T05:32:00;100979.75;;;20.17;64.07
46954;BME280;32707;43.886;12.874;2022-08-23T05:34:28;100984.22;;;20.18;64.15
46954;BME280;32707;43.886;12.874;2022-08-23T05:36:55;100984.56;;;20.13;64.13
46954;BME280;32707;43.886;12.874;2022-08-23T05:39:20;100980.06;;;20.12;64.52
46954;BME280;32707;43.886;12.874;2022-08-23T05:41:46;100979.19;;;20.08;64.58
46954;BME280;32707;43.886;12.874;2022-08-23T05:44:11;100988.09;;;20.06;64.46
46954;BME280;32707;43.886;12.874;2022-08-23T05:46:38;100992.63;;;20.11;64.63
46954;BME280;32707;43.886;12.874;2022-08-23T05:49:04;100986.63;;;20.16;64.22
46954;BME280;32707;43.886;12.874;2022-08-23T05:51:32;100992.69;;;20.14;64.17
46954;BME280;32707;43.886;12.874;2022-08-23T05:54:01;100992.75;;;20.18;64.37
46954;BME280;32707;43.886;12.874;2022-08-23T05:56:30;100991.91;;;20.17;63.92
46954;BME280;32707;43.886;12.874;2022-08-23T05:58:58;100982.63;;;20.20;64.33
46954;BME280;32707;43.886;12.874;2022-08-23T06:01:26;100994.53;;;20.30;63.94
46954;BME280;32707;43.886;12.874;2022-08-23T06:03:51;101006.44;;;20.39;63.70
46954;BME280;32707;43.886;12.874;2022-08-23T06:06:17;101003.03;;;20.56;63.43
46954;BME280;32707;43.886;12.874;2022-08-23T06:08:44;101003.69;;;20.73;62.95
46954;BME280;32707;43.886;12.874;2022-08-23T06:11:18;101006.50;;;20.69;63.10
46954;BME280;32707;43.886;12.874;2022-08-23T06:13:57;101008.09;;;20.67;63.22
46954;BME280;32707;43.886;12.874;2022-08-23T06:16:29;100997.19;;;20.72;63.04
46954;BME280;32707;43.886;12.874;2022-08-23T06:18:55;101002.84;;;21.03;62.65
46954;BME280;32707;43.886;12.874;2022-08-23T06:21:23;101000.03;;;21.44;61.92
46954;BME280;32707;43.886;12.874;2022-08-23T06:23:52;100995.38;;;21.66;61.20
46954;BME280;32707;43.886;12.874;2022-08-23T06:28:48;100994.56;;;21.65;61.08
46954;BME280;32707;43.886;12.874;2022-08-23T06:31:15;100996.22;;;21.66;61.25
46954;BME280;32707;43.886;12.874;2022-08-23T06:33:41;100995.88;;;21.75;61.13
46954;BME280;32707;43.886;12.874;2022-08-23T06:36:10;100985.34;;;21.83;61.03
46954;BME280;32707;43.886;12.874;2022-08-23T06:38:37;100999.72;;;21.97;60.75
46954;BME280;32707;43.886;12.874;2022-08-23T06:41:06;100995.38;;;22.14;60.42
46954;BME280;32707;43.886;12.874;2022-08-23T06:43:32;100995.03;;;22.23;60.15
46954;BME280;32707;43.886;12.874;2022-08-23T06:48:36;100992.28;;;22.37;60.05
46954;BME280;32707;43.886;12.874;2022-08-23T06:51:10;100992.34;;;22.48;59.82
46954;BME280;32707;43.886;12.874;2022-08-23T06:53:35;100997.75;;;22.64;59.44
46954;BME280;32707;43.886;12.874;2022-08-23T06:56:01;100999.03;;;22.77;59.14
46954;BME280;32707;43.886;12.874;2022-08-23T06:58:26;100997.88;;;22.96;58.65
46954;BME280;32707;43.886;12.874;2022-08-23T07:00:52;101005.31;;;23.19;58.25
46954;BME280;32707;43.886;12.874;2022-08-23T07:03:17;101011.88;;;23.26;58.07
46954;BME280;32707;43.886;12.874;2022-08-23T07:05:43;101007.41;;;23.43;58.05
46954;BME280;32707;43.886;12.874;2022-08-23T07:08:08;101009.06;;;23.59;57.53
46954;BME280;32707;43.886;12.874;2022-08-23T07:10:34;101013.56;;;23.78;57.16
46954;BME280;32707;43.886;12.874;2022-08-23T07:12:59;101009.09;;;23.95;56.90
46954;BME280;32707;43.886;12.874;2022-08-23T07:15:26;101011.56;;;24.03;56.71
46954;BME280;32707;43.886;12.874;2022-08-23T07:17:52;101009.13;;;24.16;56.29
46954;BME280;32707;43.886;12.874;2022-08-23T07:20:17;101023.41;;;24.31;56.13
46954;BME280;32707;43.886;12.874;2022-08-23T07:22:43;101013.16;;;24.30;56.29
46954;BME280;32707;43.886;12.874;2022-08-23T07:25:09;101015.16;;;24.72;55.38
46954;BME280;32707;43.886;12.874;2022-08-23T07:27:34;101020.22;;;25.20;54.26
46954;BME280;32707;43.886;12.874;2022-08-23T07:30:00;101023.81;;;25.46;53.68
46954;BME280;32707;43.886;12.874;2022-08-23T07:32:26;101021.34;;;25.48;53.69
46954;BME280;32707;43.886;12.874;2022-08-23T07:34:52;101017.53;;;25.66;53.74
46954;BME280;32707;43.886;12.874;2022-08-23T07:37:18;101022.00;;;26.23;52.31
46954;BME280;32707;43.886;12.874;2022-08-23T07:39:43;101020.38;;;26.98;51.17
46954;BME280;32707;43.886;12.874;2022-08-23T07:42:09;101027.97;;;27.97;49.14
46954;BME280;32707;43.886;12.874;2022-08-23T07:44:34;101023.69;;;28.96;47.80
46954;BME280;32707;43.886;12.874;2022-08-23T07:47:00;101025.09;;;29.80;46.10
46954;BME280;32707;43.886;12.874;2022-08-23T07:49:26;101031.59;;;30.34;45.38
46954;BME280;32707;43.886;12.874;2022-08-23T07:51:51;101030.50;;;31.03;44.76
46954;BME280;32707;43.886;12.874;2022-08-23T07:54:18;101028.16;;;31.91;43.13
46954;BME280;32707;43.886;12.874;2022-08-23T07:56:45;101026.38;;;32.67;42.26
46954;BME280;32707;43.886;12.874;2022-08-23T07:59:11;101034.06;;;33.27;41.37
46954;BME280;32707;43.886;12.874;2022-08-23T08:01:37;101033.59;;;34.00;40.07
46954;BME280;32707;43.886;12.874;2022-08-23T08:04:05;101039.34;;;34.69;39.31
46954;BME280;32707;43.886;12.874;2022-08-23T08:06:42;101034.75;;;35.32;38.46
46954;BME280;32707;43.886;12.874;2022-08-23T08:09:09;101033.69;;;35.96;37.46
46954;BME280;32707;43.886;12.874;2022-08-23T08:11:35;101040.19;;;36.25;37.26
46954;BME280;32707;43.886;12.874;2022-08-23T08:14:04;101035.28;;;36.55;36.75
46954;BME280;32707;43.886;12.874;2022-08-23T08:16:36;101041.78;;;36.74;36.36
46954;BME280;32707;43.886;12.874;2022-08-23T08:19:08;101037.38;;;36.93;36.08
46954;BME280;32707;43.886;12.874;2022-08-23T08:21:35;101044.31;;;36.81;35.98
46954;BME280;32707;43.886;12.874;2022-08-23T08:24:02;101041.59;;;36.77;36.03
46954;BME280;32707;43.886;12.874;2022-08-23T08:26:28;101052.06;;;36.99;35.75
46954;BME280;32707;43.886;12.874;2022-08-23T08:28:54;101036.91;;;37.40;34.76
46954;BME280;32707;43.886;12.874;2022-08-23T08:31:21;101042.28;;;37.77;33.74
46954;BME280;32707;43.886;12.874;2022-08-23T08:33:47;101051.31;;;37.93;33.66
46954;BME280;32707;43.886;12.874;2022-08-23T08:36:39;101055.41;;;38.02;32.66
46954;BME280;32707;43.886;12.874;2022-08-23T08:39:09;101046.75;;;38.07;32.67
46954;BME280;32707;43.886;12.874;2022-08-23T08:49:55;101065.59;;;37.26;32.75
46954;BME280;32707;43.886;12.874;2022-08-23T08:52:29;101060.25;;;37.40;32.12
46954;BME280;32707;43.886;12.874;2022-08-23T08:55:04;101066.09;;;37.25;31.97
46954;BME280;32707;43.886;12.874;2022-08-23T08:57:37;101065.59;;;37.26;31.83
46954;BME280;32707;43.886;12.874;2022-08-23T09:00:06;101057.63;;;37.57;31.58
46954;BME280;32707;43.886;12.874;2022-08-23T09:02:33;101063.94;;;37.85;31.02
46954;BME280;32707;43.886;12.874;2022-08-23T09:05:23;101054.44;;;38.25;30.51
46954;BME280;32707;43.886;12.874;2022-08-23T09:16:28;101070.03;;;38.37;29.85
46954;BME280;32707;43.886;12.874;2022-08-23T09:18:58;101073.28;;;38.24;30.01
46954;BME280;32707;43.886;12.874;2022-08-23T09:21:26;101072.88;;;38.31;30.05
46954;BME280;32707;43.886;12.874;2022-08-23T09:23:51;101083.28;;;37.52;30.69
46954;BME280;32707;43.886;12.874;2022-08-23T09:28:53;101084.31;;;36.95;31.08
46954;BME280;32707;43.886;12.874;2022-08-23T09:31:42;101089.09;;;36.69;31.27
46954;BME280;32707;43.886;12.874;2022-08-23T09:34:10;101085.50;;;36.16;31.77
46954;BME280;32707;43.886;12.874;2022-08-23T09:36:39;101095.75;;;35.69;32.33
46954;BME280;32707;43.886;12.874;2022-08-23T09:39:30;101089.91;;;34.90;33.42
46954;BME280;32707;43.886;12.874;2022-08-23T09:41:57;101095.78;;;34.40;33.63
46954;BME280;32707;43.886;12.874;2022-08-23T09:44:42;101095.59;;;35.73;31.74
46954;BME280;32707;43.886;12.874;2022-08-23T09:47:11;101086.81;;;36.25;30.80
46954;BME280;32707;43.886;12.874;2022-08-23T09:49:38;101084.13;;;36.99;29.67
46954;BME280;32707;43.886;12.874;2022-08-23T09:52:20;101082.78;;;37.69;28.93
46954;BME280;32707;43.886;12.874;2022-08-23T09:55:04;101083.00;;;38.01;28.70
46954;BME280;32707;43.886;12.874;2022-08-23T09:57:33;101091.16;;;38.11;28.34
46954;BME280;32707;43.886;12.874;2022-08-23T10:00:16;101095.88;;;38.44;27.82
46954;BME280;32707;43.886;12.874;2022-08-23T10:02:43;101089.53;;;38.87;27.80
46954;BME280;32707;43.886;12.874;2022-08-23T10:07:55;101089.28;;;39.11;27.06
46954;BME280;32707;43.886;12.874;2022-08-23T10:10:30;101103.06;;;39.31;27.02
46954;BME280;32707;43.886;12.874;2022-08-23T10:12:57;101090.47;;;38.37;27.76
46954;BME280;32707;43.886;12.874;2022-08-23T10:15:45;101101.94;;;38.05;28.25
46954;BME280;32707;43.886;12.874;2022-08-23T10:26:44;101103.03;;;38.43;27.26
46954;BME280;32707;43.886;12.874;2022-08-23T10:29:32;101097.22;;;38.64;27.19
46954;BME280;32707;43.886;12.874;2022-08-23T10:32:25;101100.28;;;37.39;28.74
46954;BME280;32707;43.886;12.874;2022-08-23T10:40:41;101106.94;;;36.86;29.12
46954;BME280;32707;43.886;12.874;2022-08-23T10:43:17;101110.13;;;36.15;29.78
46954;BME280;32707;43.886;12.874;2022-08-23T10:45:50;101114.84;;;35.61;30.69
46954;BME280;32707;43.886;12.874;2022-08-23T10:51:12;101116.28;;;35.75;30.22
46954;BME280;32707;43.886;12.874;2022-08-23T10:53:48;101103.13;;;35.28;30.44
46954;BME280;32707;43.886;12.874;2022-08-23T10:56:21;101107.50;;;35.04;30.80
46954;BME280;32707;43.886;12.874;2022-08-23T10:59:02;101101.84;;;34.82;31.27
46954;BME280;32707;43.886;12.874;2022-08-23T11:01:36;101090.06;;;34.77;31.31
46954;BME280;32707;43.886;12.874;2022-08-23T11:04:06;101098.25;;;34.51;31.74
46954;BME280;32707;43.886;12.874;2022-08-23T11:06:45;101091.19;;;34.79;31.17
46954;BME280;32707;43.886;12.874;2022-08-23T11:11:47;101111.66;;;36.83;28.79
46954;BME280;32707;43.886;12.874;2022-08-23T11:17:09;101101.09;;;35.61;30.43
46954;BME280;32707;43.886;12.874;2022-08-23T11:19:49;101092.72;;;37.18;28.80
46954;BME280;32707;43.886;12.874;2022-08-23T11:22:23;101093.69;;;38.39;27.10
46954;BME280;32707;43.886;12.874;2022-08-23T11:27:29;101085.88;;;40.02;25.96
46954;BME280;32707;43.886;12.874;2022-08-23T11:29:55;101096.31;;;40.58;25.53
46954;BME280;32707;43.886;12.874;2022-08-23T11:37:57;101090.06;;;39.96;26.43
46954;BME280;32707;43.886;12.874;2022-08-23T11:40:55;101100.38;;;37.60;29.22
46954;BME280;32707;43.886;12.874;2022-08-23T11:45:52;101109.09;;;34.87;32.36
46954;BME280;32707;43.886;12.874;2022-08-23T11:48:37;101101.38;;;33.75;33.84
46954;BME280;32707;43.886;12.874;2022-08-23T12:05:03;101102.19;;;32.40;34.49
46954;BME280;32707;43.886;12.874;2022-08-23T12:10:14;101112.56;;;32.76;34.19
46954;BME280;32707;43.886;12.874;2022-08-23T12:12:40;101111.34;;;32.38;34.78
46954;BME280;32707;43.886;12.874;2022-08-23T12:15:10;101098.25;;;32.46;34.89
46954;BME280;32707;43.886;12.874;2022-08-23T12:25:20;101109.06;;;31.82;36.41
46954;BME280;32707;43.886;12.874;2022-08-23T12:27:54;101107.09;;;32.78;35.04
46954;BME280;32707;43.886;12.874;2022-08-23T12:31:19;101102.47;;;34.68;32.18
46954;BME280;32707;43.886;12.874;2022-08-23T12:34:09;101099.94;;;36.11;30.64
46954;BME280;32707;43.886;12.874;2022-08-23T12:36:58;101100.75;;;37.08;29.38
46954;BME280;32707;43.886;12.874;2022-08-23T12:39:37;101092.44;;;38.46;27.83
46954;BME280;32707;43.886;12.874;2022-08-23T12:42:15;101084.19;;;38.85;27.37
46954;BME280;32707;43.886;12.874;2022-08-23T12:44:46;101092.38;;;39.02;27.71
46954;BME280;32707;43.886;12.874;2022-08-23T12:47:22;101092.38;;;39.28;27.74
46954;BME280;32707;43.886;12.874;2022-08-23T12:52:27;101093.16;;;38.56;28.62
46954;BME280;32707;43.886;12.874;2022-08-23T12:54:52;101114.53;;;37.97;28.97
46954;BME280;32707;43.886;12.874;2022-08-23T12:57:33;101098.47;;;37.86;29.10
46954;BME280;32707;43.886;12.874;2022-08-23T13:00:16;101105.09;;;38.37;28.48
46954;BME280;32707;43.886;12.874;2022-08-23T13:03:17;101086.63;;;38.66;28.18
46954;BME280;32707;43.886;12.874;2022-08-23T13:08:31;101084.28;;;37.49;29.69
46954;BME280;32707;43.886;12.874;2022-08-23T13:10:58;101092.88;;;36.36;30.99
46954;BME280;32707;43.886;12.874;2022-08-23T13:13:28;101097.38;;;36.04;31.28
46954;BME280;32707;43.886;12.874;2022-08-23T13:16:02;101097.66;;;35.81;31.63
46954;BME280;32707;43.886;12.874;2022-08-23T13:18:44;101097.38;;;35.61;31.99
46954;BME280;32707;43.886;12.874;2022-08-23T13:24:34;101099.75;;;33.21;35.17
46954;BME280;32707;43.886;12.874;2022-08-23T13:26:40;101101.50;;;33.05;35.26
46954;BME280;32707;43.886;12.874;2022-08-23T13:31:54;101087.75;;;31.88;36.71
46954;BME280;32707;43.886;12.874;2022-08-23T13:37:04;101087.56;;;32.56;35.25
46954;BME280;32707;43.886;12.874;2022-08-23T13:39:32;101088.59;;;32.62;35.11
46954;BME280;32707;43.886;12.874;2022-08-23T13:42:04;101076.78;;;32.57;35.03
46954;BME280;32707;43.886;12.874;2022-08-23T13:44:30;101074.16;;;32.84;34.51
46954;BME280;32707;43.886;12.874;2022-08-23T13:46:56;101082.50;;;32.82;34.32
46954;BME280;32707;43.886;12.874;2022-08-23T13:49:25;101080.53;;;32.79;34.58
46954;BME280;32707;43.886;12.874;2022-08-23T13:54:25;101078.97;;;33.00;34.19
46954;BME280;32707;43.886;12.874;2022-08-23T13:56:54;101079.22;;;32.93;34.23
46954;BME280;32707;43.886;12.874;2022-08-23T13:59:31;101078.53;;;32.89;34.50
46954;BME280;32707;43.886;12.874;2022-08-23T14:01:59;101083.44;;;32.79;34.43
46954;BME280;32707;43.886;12.874;2022-08-23T14:04:25;101093.72;;;32.58;34.90
46954;BME280;32707;43.886;12.874;2022-08-23T14:06:51;101092.22;;;32.41;35.12
46954;BME280;32707;43.886;12.874;2022-08-23T14:09:17;101082.19;;;32.32;35.21
46954;BME280;32707;43.886;12.874;2022-08-23T14:11:43;101081.25;;;32.23;35.29
46954;BME280;32707;43.886;12.874;2022-08-23T14:14:10;101074.56;;;32.00;35.66
46954;BME280;32707;43.886;12.874;2022-08-23T14:16:37;101081.84;;;31.79;35.99
46954;BME280;32707;43.886;12.874;2022-08-23T14:19:04;101076.41;;;31.81;35.70
46954;BME280;32707;43.886;12.874;2022-08-23T14:21:30;101076.88;;;31.80;35.76
46954;BME280;32707;43.886;12.874;2022-08-23T14:23:56;101080.81;;;31.73;35.89
46954;BME280;32707;43.886;12.874;2022-08-23T14:26:21;101077.00;;;31.76;35.92
46954;BME280;32707;43.886;12.874;2022-08-23T14:28:48;101060.00;;;31.52;36.39
46954;BME280;32707;43.886;12.874;2022-08-23T14:31:14;101064.31;;;31.31;36.90
46954;BME280;32707;43.886;12.874;2022-08-23T14:33:40;101069.88;;;31.26;36.67
46954;BME280;32707;43.886;12.874;2022-08-23T14:36:06;101072.06;;;31.22;37.04